Temp: 8.3°C   Baro: 1006.3mb
  Wind: 0.9mph   Dir: N (358°)
  Rain: 0.0mm (0.0mm/hr)
  Solar: 18W/m2  Hum: 85%
 
Bath Spa Weather Station Historical Data
Daily Summary for May 23, 2020 Units:  English    Metric   Both
Daily Weekly Monthly Yearly Custom
  High: Low: Average:
Temperature: 60.8 °F 49.8 °F 54.8 °F
Dew Point: 48.6 °F 43.2 °F 45.5 °F
Humidity: 81% 55.4% 71%
Wind Speed: 25mph 2.5mph 10.1mph
Wind Gust: 34mph - -
Wind- - West
Pressure: 30.35 in 30.09 in -
Precipitation: 0.06 in    
Historical Graphs
 
 
Tabular Data for May 23, 2020
Time Temperature Dew Point Pressure Wind Wind Speed Wind Gust Humidity Rainfall Rate (Hourly) solar
00:04 53.2 °F 44.8 °F 30.10 in WSW 9 mph 11 mph 73% 0.00 in 0 W/m2
00:09 53.2 °F 44.9 °F 30.10 in SW 5.9 mph 12 mph 73.6% 0.00 in 0 W/m2
00:14 53.1 °F 45 °F 30.10 in WSW 5.2 mph 11 mph 74% 0.00 in 0 W/m2
00:19 53.1 °F 45 °F 30.10 in SW 6.4 mph 11 mph 74% 0.00 in 0 W/m2
00:24 52.9 °F 44.8 °F 30.10 in WSW 4 mph 10 mph 74% 0.00 in 0 W/m2
00:29 52.8 °F 44.7 °F 30.10 in WSW 5.8 mph 14 mph 74% 0.00 in 0 W/m2
00:34 52.6 °F 44.5 °F 30.09 in SW 6.2 mph 11 mph 74% 0.00 in 0 W/m2
00:39 52.5 °F 44.8 °F 30.09 in WSW 4.9 mph 13 mph 75% 0.00 in 0 W/m2
00:44 52.3 °F 44.6 °F 30.09 in WSW 4.7 mph 9 mph 75% 0.00 in 0 W/m2
00:49 52.3 °F 44.6 °F 30.09 in WSW 6 mph 11 mph 75% 0.00 in 0 W/m2
00:54 52.3 °F 44.6 °F 30.09 in WSW 6.2 mph 11 mph 75% 0.00 in 0 W/m2
00:59 52.2 °F 44.4 °F 30.09 in WSW 6.4 mph 11 mph 75% 0.00 in 0 W/m2
01:04 52.2 °F 44.4 °F 30.09 in SW 7 mph 12 mph 75% 0.00 in 0 W/m2
01:09 52.2 °F 44.4 °F 30.10 in WSW 4.5 mph 11 mph 75% 0.00 in 0 W/m2
01:14 52 °F 44.2 °F 30.10 in WSW 5 mph 11 mph 75% 0.00 in 0 W/m2
01:19 52 °F 44.3 °F 30.10 in WSW 5.6 mph 9 mph 75.2% 0.00 in 0 W/m2
01:24 51.9 °F 44.5 °F 30.10 in WSW 4.9 mph 10 mph 76% 0.00 in 0 W/m2
01:29 51.7 °F 44.3 °F 30.10 in WSW 3.3 mph 10 mph 76% 0.00 in 0 W/m2
01:34 51.6 °F 44.2 °F 30.10 in WSW 4.9 mph 11 mph 76% 0.00 in 0 W/m2
01:39 51.6 °F 44.2 °F 30.10 in SW 4.7 mph 11 mph 76% 0.00 in 0 W/m2
01:44 51.5 °F 44.1 °F 30.10 in WSW 4.2 mph 9 mph 76% 0.00 in 0 W/m2
01:49 51.4 °F 44.1 °F 30.10 in WSW 5.8 mph 14 mph 76% 0.00 in 0 W/m2
01:54 51.4 °F 44.1 °F 30.10 in SW 4.8 mph 12 mph 76% 0.00 in 0 W/m2
01:59 51.4 °F 44.1 °F 30.10 in WSW 7 mph 13 mph 76% 0.00 in 0 W/m2
02:04 51.4 °F 44.2 °F 30.10 in SW 6.8 mph 10 mph 76.2% 0.00 in 0 W/m2
02:09 51.4 °F 44.4 °F 30.10 in WSW 5.6 mph 12 mph 77% 0.00 in 0 W/m2
02:14 51.3 °F 44.2 °F 30.10 in WSW 5.6 mph 13 mph 77% 0.00 in 0 W/m2
02:19 51.3 °F 44.2 °F 30.10 in West 6.4 mph 11 mph 77% 0.00 in 0 W/m2
02:24 51.3 °F 44.2 °F 30.10 in SW 5 mph 12 mph 77% 0.00 in 0 W/m2
02:29 51.3 °F 44.2 °F 30.09 in WSW 5.4 mph 13 mph 77% 0.00 in 0 W/m2
02:34 51.3 °F 44.2 °F 30.10 in SW 4.9 mph 10 mph 77% 0.00 in 0 W/m2
02:39 51.3 °F 44.2 °F 30.09 in WSW 3.4 mph 8 mph 77% 0.00 in 0 W/m2
02:43 51.1 °F 44.2 °F 30.10 in WSW 3.2 mph 9 mph 77.3% 0.00 in 0 W/m2
02:49 51.1 °F 44.3 °F 30.10 in WSW 5.6 mph 15 mph 77.6% 0.00 in 0 W/m2
02:54 51.1 °F 44.4 °F 30.10 in SW 6.6 mph 10 mph 78% 0.00 in 0 W/m2
02:59 51.1 °F 44.4 °F 30.10 in WSW 5.2 mph 13 mph 78% 0.00 in 0 W/m2
03:04 51.1 °F 44.4 °F 30.10 in SSW 5.1 mph 12 mph 78% 0.00 in 0 W/m2
03:09 51.1 °F 44.4 °F 30.10 in SW 7.4 mph 12 mph 78% 0.00 in 0 W/m2
03:14 51 °F 44.3 °F 30.10 in WSW 2.8 mph 8 mph 78% 0.00 in 0 W/m2
03:19 50.8 °F 44.2 °F 30.10 in SW 5.2 mph 9 mph 78% 0.00 in 0 W/m2
03:24 50.7 °F 44.1 °F 30.10 in SW 5.8 mph 9 mph 78% 0.00 in 0 W/m2
03:29 50.7 °F 44.1 °F 30.10 in SW 3.3 mph 11 mph 78% 0.00 in 0 W/m2
03:34 50.6 °F 44 °F 30.10 in SW 5 mph 10 mph 78% 0.00 in 0 W/m2
03:39 50.5 °F 43.9 °F 30.10 in WSW 4.4 mph 7 mph 78% 0.00 in 0 W/m2
03:44 50.5 °F 44 °F 30.10 in SW 5.3 mph 7 mph 78.2% 0.00 in 0 W/m2
03:49 50.5 °F 43.8 °F 30.10 in SW 2.5 mph 7 mph 78% 0.00 in 0 W/m2
03:54 50.4 °F 43.9 °F 30.10 in SW 3.6 mph 8 mph 78.6% 0.00 in 0 W/m2
03:59 50.4 °F 44.1 °F 30.10 in SW 3.2 mph 8 mph 79% 0.00 in 0 W/m2
04:04 50.4 °F 44.1 °F 30.10 in SW 3.3 mph 9 mph 79% 0.00 in 0 W/m2
04:09 50.4 °F 44.1 °F 30.10 in SW 4.8 mph 9 mph 79% 0.00 in 0 W/m2
04:14 50.4 °F 44.1 °F 30.10 in SW 5.4 mph 10 mph 79% 0.00 in 0 W/m2
04:19 50.4 °F 44.1 °F 30.10 in SW 4.4 mph 10 mph 79% 0.00 in 0 W/m2
04:24 50.4 °F 44.1 °F 30.11 in SW 7 mph 13 mph 79% 0.00 in 0 W/m2
04:29 50.3 °F 44 °F 30.11 in SW 6.6 mph 12 mph 79% 0.00 in 0 W/m2
04:34 50.2 °F 43.9 °F 30.11 in SW 5.7 mph 11 mph 79% 0.00 in 0 W/m2
04:39 50.2 °F 44 °F 30.11 in SW 5.4 mph 11 mph 79.2% 0.00 in 0 W/m2
04:44 50.2 °F 44.2 °F 30.11 in SW 4.7 mph 11 mph 80% 0.00 in 0 W/m2
04:49 50.2 °F 44.2 °F 30.11 in WSW 3.4 mph 9 mph 80% 0.00 in 0 W/m2
04:54 50.2 °F 44.2 °F 30.11 in SW 4.5 mph 12 mph 80% 0.00 in 0 W/m2
04:59 50.2 °F 44.2 °F 30.11 in SW 3.5 mph 10 mph 80% 0.00 in 0 W/m2
05:04 50.2 °F 44.2 °F 30.11 in WSW 5.9 mph 11 mph 80% 0.00 in 0 W/m2
05:09 50.2 °F 44.2 °F 30.11 in SW 3.8 mph 8 mph 80% 0.00 in 5 W/m2
05:14 50.2 °F 44.2 °F 30.11 in SW 4.4 mph 9 mph 80% 0.00 in 5 W/m2
05:19 50 °F 44.1 °F 30.11 in SW 4.7 mph 9 mph 80% 0.00 in 9 W/m2
05:24 49.9 °F 44 °F 30.11 in SW 4.5 mph 8 mph 80% 0.00 in 14 W/m2
05:29 49.8 °F 43.9 °F 30.11 in SW 4.6 mph 9 mph 80% 0.00 in 14 W/m2
05:34 49.8 °F 43.9 °F 30.11 in SW 6.7 mph 11 mph 80% 0.00 in 16 W/m2
05:39 49.8 °F 43.9 °F 30.11 in SW 5.4 mph 11 mph 80% 0.00 in 21 W/m2
05:44 49.8 °F 43.9 °F 30.11 in WSW 6.6 mph 11 mph 80% 0.00 in 25 W/m2
05:49 49.8 °F 44.1 °F 30.11 in SW 7.1 mph 11 mph 80.8% 0.00 in 72 W/m2
05:54 49.9 °F 44.3 °F 30.11 in SW 7.1 mph 12 mph 81% 0.00 in 84 W/m2
05:59 50.2 °F 44.6 °F 30.11 in WSW 6.3 mph 11 mph 81% 0.00 in 26 W/m2
06:04 50.2 °F 44.6 °F 30.11 in WSW 5.4 mph 12 mph 81% 0.00 in 62 W/m2
06:08 50.2 °F 44.6 °F 30.12 in WSW 7.5 mph 12 mph 81% 0.00 in 102 W/m2
06:14 50.4 °F 44.8 °F 30.12 in West 5.6 mph 13 mph 81% 0.00 in 86 W/m2
06:19 50.4 °F 44.9 °F 30.12 in WSW 7 mph 12 mph 81% 0.00 in 63 W/m2
06:24 50.6 °F 45.1 °F 30.12 in West 6.8 mph 13 mph 81% 0.00 in 51 W/m2
06:29 50.7 °F 45.1 °F 30.12 in West 6.4 mph 12 mph 81% 0.00 in 60 W/m2
06:34 50.9 °F 45.3 °F 30.12 in WSW 6.8 mph 10 mph 81% 0.00 in 47 W/m2
06:39 51.1 °F 45.3 °F 30.12 in WSW 9.4 mph 19 mph 80.4% 0.00 in 60 W/m2
06:44 51.2 °F 45.2 °F 30.13 in West 6.6 mph 15 mph 80% 0.00 in 76 W/m2
06:49 51.3 °F 45.3 °F 30.13 in WSW 7.8 mph 15 mph 80% 0.00 in 102 W/m2
06:54 51.5 °F 45.6 °F 30.13 in West 7.2 mph 13 mph 80% 0.00 in 148 W/m2
06:59 51.8 °F 45.7 °F 30.13 in WSW 5.6 mph 13 mph 79.6% 0.00 in 172 W/m2
07:04 52.1 °F 45.8 °F 30.13 in West 7.4 mph 11 mph 79% 0.00 in 172 W/m2
07:09 52.2 °F 45.8 °F 30.13 in WSW 6.2 mph 15 mph 78.8% 0.00 in 113 W/m2
07:14 52 °F 45.5 °F 30.13 in West 5.6 mph 12 mph 78.4% 0.00 in 223 W/m2
07:19 52.2 °F 45.5 °F 30.13 in West 7.2 mph 17 mph 78% 0.00 in 209 W/m2
07:23 52.4 °F 45.8 °F 30.13 in West 10.3 mph 16 mph 78% 0.00 in 230 W/m2
07:29 52.5 °F 45.5 °F 30.13 in WSW 8.8 mph 16 mph 77% 0.00 in 195 W/m2
07:34 52.9 °F 45.9 °F 30.13 in WSW 10.6 mph 21 mph 77% 0.00 in 267 W/m2
07:39 53.1 °F 45.7 °F 30.13 in WSW 8 mph 16 mph 76% 0.00 in 134 W/m2
07:44 53.2 °F 45.5 °F 30.13 in WSW 10.4 mph 19 mph 75.2% 0.00 in 294 W/m2
07:49 53.6 °F 45.9 °F 30.14 in West 10.4 mph 18 mph 75.2% 0.00 in 322 W/m2
07:54 53.7 °F 45.7 °F 30.14 in SW 10.2 mph 19 mph 74.2% 0.00 in 232 W/m2
07:59 54 °F 45.6 °F 30.14 in WSW 6.9 mph 18 mph 73.2% 0.00 in 385 W/m2
08:04 54.7 °F 45.8 °F 30.14 in West 9.2 mph 18 mph 72% 0.00 in 287 W/m2
08:09 54.8 °F 45.1 °F 30.14 in WNW 10.6 mph 24 mph 69.6% 0.00 in 417 W/m2
08:14 54.5 °F 44.2 °F 30.14 in WNW 16.1 mph 26 mph 68% 0.00 in 223 W/m2
08:19 54.6 °F 44.7 °F 30.14 in West 10.7 mph 24 mph 69% 0.00 in 432 W/m2
08:24 55.1 °F 44.9 °F 30.14 in West 8.2 mph 22 mph 68.4% 0.00 in 501 W/m2
08:29 55.4 °F 44.8 °F 30.15 in West 9 mph 22 mph 67.6% 0.00 in 508 W/m2
08:34 55.2 °F 44.4 °F 30.15 in West 10.4 mph 19 mph 67% 0.00 in 508 W/m2
08:39 55.5 °F 44.6 °F 30.15 in WNW 10.4 mph 21 mph 66.6% 0.00 in 559 W/m2
08:44 56.1 °F 44.8 °F 30.14 in West 12.6 mph 21 mph 65.6% 0.00 in 559 W/m2
08:49 56.1 °F 45.3 °F 30.15 in West 11.2 mph 23 mph 67% 0.00 in 534 W/m2
08:54 56.2 °F 45.4 °F 30.15 in WSW 11.2 mph 25 mph 67% 0.00 in 621 W/m2
08:59 56.4 °F 45.4 °F 30.15 in West 13.4 mph 27 mph 66.4% 0.00 in 619 W/m2
09:04 56.4 °F 45.5 °F 30.15 in West 12.8 mph 24 mph 66.8% 0.00 in 649 W/m2
09:09 56.7 °F 45.8 °F 30.15 in West 6.9 mph 21 mph 66.8% 0.00 in 649 W/m2
09:14 56.9 °F 45.9 °F 30.15 in West 13.4 mph 20 mph 66.4% 0.00 in 626 W/m2
09:19 56.9 °F 45.9 °F 30.15 in West 13.5 mph 22 mph 66.4% 0.00 in 737 W/m2
09:24 56.8 °F 45.9 °F 30.16 in West 10.9 mph 23 mph 66.6% 0.00 in 737 W/m2
09:29 56.7 °F 45.9 °F 30.16 in West 7.4 mph 19 mph 67.2% 0.00 in 216 W/m2
09:34 56.9 °F 45.8 °F 30.16 in WSW 11.8 mph 19 mph 66.2% 0.00 in 693 W/m2
09:39 57.2 °F 45.9 °F 30.16 in WSW 12.2 mph 22 mph 66% 0.00 in 693 W/m2
09:44 56.8 °F 45.8 °F 30.16 in WSW 12.8 mph 21 mph 66.5% 0.00 in 204 W/m2
09:49 56.5 °F 45.8 °F 30.16 in West 11.8 mph 21 mph 67.2% 0.00 in 756 W/m2
09:54 56.6 °F 46.2 °F 30.16 in West 11.4 mph 24 mph 68% 0.00 in 756 W/m2
09:59 56.8 °F 46.3 °F 30.17 in West 13.6 mph 22 mph 68% 0.00 in 202 W/m2
10:04 56.3 °F 46 °F 30.17 in West 13 mph 28 mph 68.4% 0.00 in 330 W/m2
10:09 56.5 °F 46.1 °F 30.16 in WNW 7.5 mph 30 mph 68% 0.00 in 656 W/m2
10:14 57.8 °F 46.9 °F 30.16 in WSW 6.6 mph 14 mph 67% 0.00 in 656 W/m2
10:19 57.5 °F 47 °F 30.17 in West 12 mph 28 mph 68% 0.04 in 656 W/m2
10:24 53.5 °F 45.3 °F 30.18 in WSW 11.6 mph 28 mph 73.8% 0.06 in 216 W/m2
10:29 52.5 °F 45.4 °F 30.17 in West 8.4 mph 22 mph 76.8% 0.06 in 617 W/m2
10:34 53.5 °F 47.4 °F 30.17 in West 9.8 mph 22 mph 79.8% 0.06 in 693 W/m2
10:39 54.5 °F 48.4 °F 30.16 in WNW 6.6 mph 14 mph 80% 0.06 in 601 W/m2
10:44 54.7 °F 48.1 °F 30.16 in West 11.4 mph 21 mph 78.4% 0.06 in 262 W/m2
10:49 54.5 °F 47.3 °F 30.17 in WNW 11.4 mph 21 mph 76.6% 0.06 in 155 W/m2
10:54 53.9 °F 46.6 °F 30.17 in WNW 9.4 mph 19 mph 76.2% 0.06 in 754 W/m2
10:59 54.6 °F 47.5 °F 30.17 in WNW 11.8 mph 20 mph 76.8% 0.06 in 816 W/m2
11:04 56.2 °F 48.6 °F 30.17 in WNW 10.5 mph 23 mph 75.4% 0.06 in 907 W/m2
11:09 56.8 °F 47.3 °F 30.17 in NW 13.5 mph 22 mph 70.5% 0.06 in 1007 W/m2
11:14 57 °F 46.5 °F 30.18 in West 13 mph 28 mph 67.8% 0.06 in 953 W/m2
11:19 57.4 °F 46.7 °F 30.18 in West 8.4 mph 21 mph 67.4% 0.06 in 958 W/m2
11:24 57.6 °F 46.4 °F 30.18 in WNW 15 mph 30 mph 66.4% 0.00 in 958 W/m2
11:29 57.6 °F 46.5 °F 30.18 in West 14.4 mph 22 mph 66.6% 0.00 in 810 W/m2
11:34 58.1 °F 46.7 °F 30.18 in West 10.4 mph 27 mph 65.8% 0.00 in 893 W/m2
11:39 58.3 °F 46.5 °F 30.19 in WNW 18 mph 29 mph 64.8% 0.00 in 840 W/m2
11:44 58.3 °F 46.4 °F 30.19 in WNW 15.8 mph 28 mph 64.6% 0.00 in 891 W/m2
11:49 58.4 °F 46 °F 30.19 in West 14.8 mph 32 mph 63.2% 0.00 in 853 W/m2
11:54 58.7 °F 45.6 °F 30.19 in WSW 12.8 mph 32 mph 61.6% 0.00 in 884 W/m2
11:59 59.1 °F 44.7 °F 30.19 in WNW 17 mph 30 mph 58.8% 0.00 in 918 W/m2
12:04 59 °F 45.1 °F 30.19 in West 11.4 mph 25 mph 59.8% 0.00 in 898 W/m2
12:09 59.4 °F 45.4 °F 30.19 in West 15 mph 27 mph 59.8% 0.00 in 886 W/m2
12:14 59.6 °F 45.6 °F 30.19 in WNW 16.1 mph 25 mph 59.8% 0.00 in 888 W/m2
12:19 59.2 °F 44.6 °F 30.19 in WNW 15.4 mph 26 mph 58.4% 0.00 in 918 W/m2
12:24 59.2 °F 44.5 °F 30.20 in WNW 13.2 mph 30 mph 58.2% 0.00 in 923 W/m2
12:29 59.2 °F 43.9 °F 30.19 in WNW 10 mph 26 mph 57% 0.00 in 858 W/m2
12:34 59.6 °F 44.8 °F 30.19 in WNW 9.2 mph 29 mph 58.3% 0.00 in 867 W/m2
12:39 60.3 °F 45.7 °F 30.19 in West 11 mph 20 mph 58.6% 0.00 in 937 W/m2
12:44 60.8 °F 46 °F 30.19 in WNW 12.4 mph 26 mph 58.2% 0.00 in 1000 W/m2
12:49 59.8 °F 45.5 °F 30.19 in WNW 16.4 mph 26 mph 59.2% 0.00 in 1000 W/m2
12:54 59.5 °F 45.3 °F 30.20 in WNW 15.4 mph 28 mph 59.2% 0.01 in 919 W/m2
12:59 60 °F 44.8 °F 30.19 in WNW 18.2 mph 28 mph 57.2% 0.01 in 960 W/m2
13:04 60.1 °F 45.1 °F 30.20 in WNW 15.8 mph 28 mph 57.6% 0.01 in 960 W/m2
13:09 59.4 °F 43.8 °F 30.20 in WNW 16.4 mph 27 mph 56.2% 0.01 in 998 W/m2
13:14 59.2 °F 43.2 °F 30.20 in WNW 13.4 mph 31 mph 55.4% 0.01 in 884 W/m2
13:19 59.5 °F 44.3 °F 30.20 in West 13.2 mph 26 mph 57.2% 0.01 in 954 W/m2
13:24 59.7 °F 44.9 °F 30.21 in West 15.4 mph 26 mph 58% 0.01 in 997 W/m2
13:29 60 °F 44.9 °F 30.21 in NW 16.2 mph 27 mph 57.4% 0.01 in 974 W/m2
13:34 59.9 °F 45.1 °F 30.21 in West 14.2 mph 33 mph 58% 0.01 in 926 W/m2
13:38 59.9 °F 44.7 °F 30.21 in WNW 16.7 mph 27 mph 57.3% 0.01 in 912 W/m2
13:44 60 °F 45.2 °F 30.21 in WNW 11.8 mph 27 mph 58% 0.01 in 940 W/m2
13:49 59.7 °F 45.4 °F 30.21 in WNW 16.6 mph 28 mph 59.2% 0.01 in 1023 W/m2
13:54 59.3 °F 45.5 °F 30.21 in WNW 16.2 mph 29 mph 60.2% 0.01 in 1023 W/m2
13:59 58.7 °F 46.3 °F 30.22 in WNW 14.6 mph 29 mph 63.4% 0.00 in 418 W/m2
14:04 58.1 °F 45.2 °F 30.22 in WNW 17.8 mph 34 mph 62.2% 0.00 in 489 W/m2
14:09 57.5 °F 44.2 °F 30.23 in West 14.2 mph 34 mph 61.2% 0.00 in 476 W/m2
14:14 57.4 °F 44.9 °F 30.23 in WNW 16 mph 25 mph 63% 0.00 in 452 W/m2
14:19 58.1 °F 45.1 °F 30.23 in West 12 mph 28 mph 61.8% 0.00 in 1034 W/m2
14:24 58.2 °F 45.1 °F 30.23 in West 15.2 mph 31 mph 61.6% 0.00 in 376 W/m2
14:29 58.5 °F 45.2 °F 30.23 in WNW 14.7 mph 28 mph 61.2% 0.00 in 981 W/m2
14:34 59.2 °F 45.5 °F 30.22 in West 19.4 mph 31 mph 60.4% 0.00 in 912 W/m2
14:39 59.7 °F 45.7 °F 30.22 in WSW 15.4 mph 24 mph 59.8% 0.00 in 1000 W/m2
14:44 59.5 °F 44.9 °F 30.22 in West 19 mph 33 mph 58.2% 0.00 in 990 W/m2
14:49 59 °F 45.1 °F 30.23 in WNW 17.5 mph 31 mph 59.8% 0.00 in 905 W/m2
14:54 59 °F 45.9 °F 30.23 in WNW 16 mph 33 mph 61.8% 0.00 in 831 W/m2
14:59 59.6 °F 45.7 °F 30.23 in WNW 13.4 mph 27 mph 60% 0.00 in 819 W/m2
15:04 59.7 °F 44.8 °F 30.25 in WNW 20.2 mph 34 mph 57.8% 0.00 in 837 W/m2
15:09 59.2 °F 44 °F 30.24 in West 15.4 mph 34 mph 57.2% 0.00 in 847 W/m2
15:14 59.3 °F 44.6 °F 30.24 in West 18.4 mph 30 mph 58.2% 0.00 in 833 W/m2
15:19 59.3 °F 44.3 °F 30.24 in WNW 18.8 mph 30 mph 57.5% 0.00 in 830 W/m2
15:24 59 °F 43.8 °F 30.24 in NW 16.4 mph 34 mph 57.2% 0.00 in 809 W/m2
15:29 59.4 °F 44.6 °F 30.24 in WNW 15.8 mph 34 mph 57.8% 0.00 in 795 W/m2
15:34 59.5 °F 45 °F 30.24 in WNW 13.4 mph 29 mph 58.8% 0.00 in 838 W/m2
15:39 60 °F 45.7 °F 30.25 in West 12 mph 27 mph 59.2% 0.00 in 821 W/m2
15:44 59.8 °F 45.2 °F 30.24 in West 13.3 mph 26 mph 58.3% 0.00 in 826 W/m2
15:49 59.9 °F 45.1 °F 30.25 in West 14.8 mph 27 mph 58% 0.00 in 809 W/m2
15:54 59.5 °F 44.9 °F 30.25 in West 19.8 mph 27 mph 58.6% 0.00 in 807 W/m2
15:59 59.4 °F 44.4 °F 30.25 in West 16.8 mph 29 mph 57.6% 0.00 in 773 W/m2
16:04 59.3 °F 44.9 °F 30.26 in WNW 19.2 mph 32 mph 59% 0.00 in 807 W/m2
16:09 59.6 °F 46.3 °F 30.26 in West 12.4 mph 23 mph 61.2% 0.00 in 807 W/m2
16:14 59.9 °F 46.8 °F 30.26 in WNW 11.2 mph 26 mph 62% 0.00 in 833 W/m2
16:19 60 °F 46.9 °F 30.26 in WSW 14.2 mph 30 mph 62% 0.00 in 805 W/m2
16:23 59.5 °F 46.8 °F 30.26 in West 14.2 mph 29 mph 62.8% 0.00 in 756 W/m2
16:29 58.6 °F 46.4 °F 30.26 in WNW 13 mph 28 mph 63.8% 0.00 in 703 W/m2
16:34 58.4 °F 46.1 °F 30.26 in WNW 11.8 mph 29 mph 63.6% 0.00 in 703 W/m2
16:39 58.9 °F 46.2 °F 30.26 in WNW 12 mph 28 mph 62.8% 0.00 in 659 W/m2
16:44 58.4 °F 46 °F 30.26 in WNW 15.7 mph 28 mph 63.4% 0.00 in 178 W/m2
16:49 58.1 °F 45.7 °F 30.27 in NW 15.8 mph 30 mph 63.4% 0.00 in 274 W/m2
16:53 57.9 °F 45.4 °F 30.26 in WNW 17.2 mph 28 mph 63% 0.00 in 661 W/m2
16:59 58.4 °F 45.5 °F 30.27 in West 14.1 mph 28 mph 62.2% 0.00 in 615 W/m2
17:04 58.2 °F 45.1 °F 30.27 in West 25 mph 32 mph 61.8% 0.00 in 589 W/m2
17:09 58.2 °F 44.7 °F 30.27 in WNW 15.8 mph 32 mph 60.6% 0.00 in 570 W/m2
17:14 58.1 °F 44.7 °F 30.28 in WNW 19.2 mph 29 mph 60.8% 0.00 in 584 W/m2
17:19 57.9 °F 44.5 °F 30.27 in West 17.9 mph 32 mph 60.8% 0.00 in 566 W/m2
17:24 58 °F 44.9 °F 30.27 in West 19.8 mph 30 mph 61.6% 0.00 in 547 W/m2
17:29 57.8 °F 45.2 °F 30.27 in West 12.6 mph 27 mph 62.8% 0.00 in 527 W/m2
17:34 57.7 °F 45.3 °F 30.28 in WNW 16.6 mph 28 mph 63.2% 0.00 in 515 W/m2
17:39 57.7 °F 45.2 °F 30.28 in West 15.3 mph 29 mph 62.8% 0.00 in 503 W/m2
17:44 57.7 °F 45.3 °F 30.28 in WNW 12.9 mph 31 mph 63.2% 0.00 in 489 W/m2
17:49 57.4 °F 45.8 °F 30.29 in West 13.6 mph 27 mph 65.4% 0.00 in 499 W/m2
17:54 57 °F 46.1 °F 30.28 in WNW 13.3 mph 25 mph 66.6% 0.00 in 504 W/m2
17:59 57.3 °F 46.4 °F 30.28 in WNW 12.9 mph 23 mph 66.8% 0.00 in 503 W/m2
18:04 57.9 °F 46.6 °F 30.28 in West 9.6 mph 24 mph 66.2% 0.00 in 441 W/m2
18:09 57.3 °F 46.5 °F 30.29 in WNW 10.8 mph 29 mph 67% 0.00 in 501 W/m2
18:14 56.8 °F 46.5 °F 30.28 in West 9 mph 27 mph 68% 0.00 in 457 W/m2
18:19 56.5 °F 46 °F 30.29 in West 14 mph 25 mph 68% 0.00 in 234 W/m2
18:24 56.3 °F 46.1 °F 30.29 in WNW 13 mph 25 mph 68.6% 0.00 in 153 W/m2
18:29 56 °F 46 °F 30.29 in West 9.8 mph 25 mph 69.2% 0.00 in 311 W/m2
18:34 56.1 °F 46.3 °F 30.28 in West 13.2 mph 28 mph 70% 0.00 in 336 W/m2
18:39 55.8 °F 46.1 °F 30.29 in West 9.9 mph 23 mph 70% 0.00 in 274 W/m2
18:44 55.8 °F 46 °F 30.29 in West 14.6 mph 27 mph 70% 0.00 in 211 W/m2
18:49 55.5 °F 46.1 °F 30.29 in West 12 mph 26 mph 70.4% 0.00 in 109 W/m2
18:54 55.2 °F 46 °F 30.29 in WNW 12.2 mph 24 mph 71% 0.00 in 91 W/m2
18:59 55.1 °F 46.3 °F 30.29 in WNW 15.2 mph 25 mph 72% 0.00 in 67 W/m2
19:04 55 °F 46.2 °F 30.29 in WNW 11.5 mph 26 mph 72% 0.00 in 70 W/m2
19:09 55 °F 46.2 °F 30.30 in West 10.4 mph 29 mph 72% 0.00 in 83 W/m2
19:14 54.9 °F 46.3 °F 30.30 in West 10.8 mph 29 mph 72.8% 0.00 in 76 W/m2
19:19 54.9 °F 46.4 °F 30.29 in West 14.6 mph 25 mph 73% 0.00 in 97 W/m2
19:24 54.9 °F 46.4 °F 30.29 in WNW 10.6 mph 23 mph 73% 0.00 in 95 W/m2
19:29 54.9 °F 46.4 °F 30.29 in WNW 14.8 mph 24 mph 73% 0.00 in 97 W/m2
19:34 54.7 °F 46.6 °F 30.29 in WNW 12.6 mph 24 mph 74% 0.00 in 88 W/m2
19:39 54.8 °F 46.7 °F 30.30 in WNW 8.8 mph 22 mph 74% 0.00 in 81 W/m2
19:44 54.7 °F 46.6 °F 30.30 in WNW 11.9 mph 23 mph 73.8% 0.00 in 70 W/m2
19:49 54.6 °F 46.5 °F 30.30 in WNW 11.8 mph 20 mph 74% 0.00 in 49 W/m2
19:54 54.5 °F 46.4 °F 30.31 in West 12.6 mph 23 mph 74% 0.00 in 47 W/m2
19:59 54.5 °F 46.7 °F 30.31 in West 9.5 mph 21 mph 74.8% 0.00 in 53 W/m2
20:04 54.3 °F 46.6 °F 30.31 in West 10.8 mph 22 mph 75% 0.00 in 58 W/m2
20:09 54.3 °F 46.6 °F 30.31 in WNW 11.2 mph 19 mph 75% 0.00 in 49 W/m2
20:14 54.3 °F 46.6 °F 30.31 in WNW 12.6 mph 19 mph 75% 0.00 in 51 W/m2
20:19 54.3 °F 46.6 °F 30.31 in West 7.8 mph 19 mph 75% 0.00 in 56 W/m2
20:24 54.3 °F 46.6 °F 30.31 in WNW 7.6 mph 23 mph 75% 0.00 in 54 W/m2
20:29 54.3 °F 46.6 °F 30.31 in West 10.6 mph 23 mph 75% 0.00 in 42 W/m2
20:34 54.1 °F 46.4 °F 30.31 in West 6.5 mph 19 mph 75% 0.00 in 23 W/m2
20:39 54.1 °F 46.3 °F 30.31 in West 8.2 mph 22 mph 75% 0.00 in 19 W/m2
20:44 53.9 °F 46.1 °F 30.31 in West 7.5 mph 22 mph 75% 0.00 in 16 W/m2
20:49 53.8 °F 46 °F 30.32 in West 12.8 mph 21 mph 75% 0.00 in 11 W/m2
20:54 53.8 °F 46.4 °F 30.32 in WNW 8.8 mph 20 mph 76% 0.00 in 7 W/m2
20:58 53.6 °F 46.2 °F 30.32 in WNW 9.1 mph 18 mph 76% 0.00 in 5 W/m2
21:04 53.6 °F 46.2 °F 30.32 in West 12 mph 21 mph 76% 0.00 in 0 W/m2
21:09 53.4 °F 46 °F 30.32 in West 10 mph 19 mph 76% 0.00 in 0 W/m2
21:14 53.4 °F 46 °F 30.32 in West 9.8 mph 21 mph 76% 0.00 in 0 W/m2
21:19 53.4 °F 46 °F 30.32 in West 10.1 mph 17 mph 76% 0.00 in 0 W/m2
21:24 53.4 °F 46 °F 30.32 in WNW 9 mph 18 mph 76% 0.00 in 0 W/m2
21:29 53.3 °F 46.2 °F 30.32 in West 7.6 mph 16 mph 76.6% 0.00 in 0 W/m2
21:34 53.2 °F 46.2 °F 30.32 in West 6.7 mph 17 mph 77% 0.00 in 0 W/m2
21:39 53.2 °F 46.4 °F 30.33 in WNW 8 mph 15 mph 77.6% 0.00 in 0 W/m2
21:44 53.1 °F 46.4 °F 30.33 in West 9 mph 13 mph 78% 0.00 in 0 W/m2
21:49 53.1 °F 46.4 °F 30.33 in West 9.2 mph 17 mph 78% 0.00 in 0 W/m2
21:54 53.1 °F 46.4 °F 30.33 in West 8.8 mph 19 mph 78% 0.00 in 0 W/m2
21:59 53.1 °F 46.4 °F 30.33 in WNW 8.8 mph 16 mph 78% 0.00 in 0 W/m2
22:04 53.2 °F 46.6 °F 30.33 in West 6.3 mph 16 mph 78% 0.00 in 0 W/m2
22:09 53.2 °F 46.8 °F 30.33 in NW 9.6 mph 16 mph 78.8% 0.00 in 0 W/m2
22:14 53.2 °F 46.9 °F 30.33 in WNW 9.4 mph 18 mph 79% 0.00 in 0 W/m2
22:19 53.2 °F 46.9 °F 30.33 in West 10.9 mph 17 mph 79% 0.00 in 0 W/m2
22:24 53.2 °F 46.9 °F 30.34 in West 9.6 mph 18 mph 79% 0.00 in 0 W/m2
22:29 53.3 °F 47 °F 30.34 in WNW 10 mph 18 mph 79% 0.00 in 0 W/m2
22:34 53.4 °F 47.1 °F 30.34 in West 5.8 mph 18 mph 79% 0.00 in 0 W/m2
22:39 53.3 °F 47 °F 30.34 in West 8.2 mph 18 mph 79% 0.00 in 0 W/m2
22:44 53.4 °F 47.1 °F 30.34 in West 7.7 mph 19 mph 79% 0.00 in 0 W/m2
22:48 53.4 °F 47.1 °F 30.34 in WNW 9.8 mph 19 mph 79% 0.00 in 0 W/m2
22:54 53.4 °F 47.1 °F 30.34 in West 4.8 mph 14 mph 79% 0.00 in 0 W/m2
22:59 53.3 °F 47 °F 30.34 in WNW 8.2 mph 17 mph 79% 0.00 in 0 W/m2
23:04 53.2 °F 46.9 °F 30.34 in WNW 9.9 mph 19 mph 79% 0.00 in 0 W/m2
23:09 53.2 °F 46.9 °F 30.34 in WNW 7.6 mph 14 mph 79% 0.00 in 0 W/m2
23:14 53.2 °F 46.9 °F 30.34 in WNW 9.8 mph 14 mph 79% 0.00 in 0 W/m2
23:19 53.3 °F 47 °F 30.35 in WNW 8.8 mph 14 mph 79% 0.00 in 0 W/m2
23:24 53.4 °F 47.1 °F 30.35 in WNW 6.5 mph 14 mph 79% 0.00 in 0 W/m2
23:29 53.4 °F 47.1 °F 30.35 in West 7 mph 15 mph 79% 0.00 in 0 W/m2
23:34 53.4 °F 47.1 °F 30.35 in WNW 9 mph 14 mph 79% 0.00 in 0 W/m2
23:39 53.4 °F 47.1 °F 30.35 in West 7 mph 14 mph 79% 0.00 in 0 W/m2
23:44 53.4 °F 47.3 °F 30.35 in WNW 6.8 mph 14 mph 79.4% 0.00 in 0 W/m2
23:49 53.4 °F 47.5 °F 30.35 in WNW 6.1 mph 14 mph 80% 0.00 in 0 W/m2
23:54 53.4 °F 47.5 °F 30.35 in WNW 7 mph 13 mph 80% 0.00 in 0 W/m2
23:59 53.4 °F 47.5 °F 30.35 in WNW 5.6 mph 14 mph 80% 0.00 in 0 W/m2
Bath Spa Weather
Compliments of Weather Underground - 2 mb